Arzamas, Russia
Current Conditions -  °F | °C
As of 3:30 PM on Wednesday 26 Nov 2014 (Local Time) from UWGG Reporting Station
Haze Haze  
Wind Chill: -8°   Ceiling: 500
Heat Index: -5°   Visibility: 3mi
Dew Point: -6°   Wind: 4mph
Humidity: 93%   Direction: 240°WSW
Pressure: 30.42"   Gusts: NA
Location:  55.38°N, 43.82°E
Report Text: UWGG 261230Z 24002MPS 5000 BR OVC005 M05/M06 Q1030 NOSIG18420050 RMK QBB170 QFE766
Loading
Personal Weather Stations






























Interactive Weather Map New forecast layout! Learn more

10-Day Weather Forecast

Advertisements
Track Severe Weather on mobile